Ash Grove, Missouri
Current Conditions -  °F | °C
As of 9:52 AM on Friday 21 Nov 2014 (Local Time) from KSGF Reporting Station
Overcast Overcast  
Wind Chill: 36°   Ceiling: 2000
Heat Index: 45°   Visibility: 10mi
Dew Point: 26°   Wind: 23mph
Humidity: 48%   Direction: 140°SE
Pressure: 30.23"   Gusts: 29mph
Location:  37.32°N, 93.59°W
Report Text: KSGF 211552Z 14020G25KT 10SM OVC020 07/M03 A3023 RMK AO2 PK WND 15026/1500 SLP242 T00721033
Loading
Personal Weather Stations






























Interactive Weather Map New forecast layout! Learn more

10-Day Weather Forecast

Advertisements
Track Severe Weather on mobile